createdAt,value
2018-06-27T00:01:27.098Z,85.85
2018-06-27T00:03:55.593Z,86.08
2018-06-27T00:06:24.081Z,86.30
2018-06-27T00:08:52.925Z,86.13
2018-06-27T00:11:21.449Z,85.89
2018-06-27T00:13:49.917Z,86.39
2018-06-27T00:16:18.499Z,86.19
2018-06-27T00:18:46.978Z,86.51
2018-06-27T00:21:15.885Z,86.28
2018-06-27T00:23:44.357Z,86.55
2018-06-27T00:26:12.845Z,86.04
2018-06-27T00:28:41.806Z,86.05
2018-06-27T00:31:10.329Z,86.11
2018-06-27T00:33:39.787Z,86.46
2018-06-27T00:36:08.302Z,86.31
2018-06-27T00:38:36.798Z,86.55
2018-06-27T00:41:05.717Z,86.66
2018-06-27T00:43:34.205Z,86.72
2018-06-27T00:46:02.676Z,86.57
2018-06-27T00:48:31.192Z,86.84
2018-06-27T00:50:59.686Z,86.95
2018-06-27T00:53:33.628Z,87.15
2018-06-27T00:56:02.119Z,87.03
2018-06-27T00:58:30.644Z,87.30
2018-06-27T01:00:59.305Z,87.63
2018-06-27T01:03:27.762Z,87.75
2018-06-27T01:05:56.248Z,87.75
2018-06-27T01:08:24.720Z,87.63
2018-06-27T01:10:53.233Z,87.50
2018-06-27T01:13:21.714Z,87.24
2018-06-27T01:15:50.194Z,87.49
2018-06-27T01:18:18.718Z,87.46
2018-06-27T01:20:47.205Z,87.27
2018-06-27T01:23:15.754Z,87.69
2018-06-27T01:25:44.252Z,87.68
2018-06-27T01:28:12.876Z,87.59
2018-06-27T01:30:41.340Z,87.44
2018-06-27T01:33:09.830Z,87.83
2018-06-27T01:35:38.754Z,87.74
2018-06-27T01:38:07.285Z,87.91
2018-06-27T01:40:35.751Z,87.79
2018-06-27T01:43:04.258Z,87.73
2018-06-27T01:45:32.734Z,87.83
2018-06-27T01:48:01.192Z,87.86
2018-06-27T01:50:30.019Z,87.64
2018-06-27T01:52:58.486Z,88.00
2018-06-27T01:55:26.954Z,87.69
2018-06-27T01:57:55.648Z,87.84
2018-06-27T02:00:24.117Z,88.06
2018-06-27T02:02:52.575Z,88.12
2018-06-27T02:05:21.096Z,88.19
2018-06-27T02:07:49.586Z,88.31
2018-06-27T02:10:18.053Z,88.32
2018-06-27T02:12:46.676Z,88.60
2018-06-27T02:15:15.145Z,88.75
2018-06-27T02:17:43.794Z,88.83
2018-06-27T02:20:12.329Z,88.93
2018-06-27T02:22:40.803Z,88.92
2018-06-27T02:25:09.454Z,88.72
2018-06-27T02:27:38.072Z,88.87
2018-06-27T02:30:06.798Z,88.94
2018-06-27T02:32:35.262Z,88.90
2018-06-27T02:35:03.957Z,88.94
2018-06-27T02:37:32.443Z,88.78
2018-06-27T02:40:00.945Z,89.08
2018-06-27T02:42:29.445Z,89.06
2018-06-27T02:44:57.969Z,89.12
2018-06-27T02:47:26.464Z,89.47
2018-06-27T02:49:54.988Z,89.39
2018-06-27T02:52:23.541Z,89.58
2018-06-27T02:54:52.122Z,89.45
2018-06-27T02:57:20.750Z,89.31
2018-06-27T02:59:49.220Z,89.53
2018-06-27T03:02:17.725Z,89.64
2018-06-27T03:04:46.197Z,89.56
2018-06-27T03:07:14.670Z,89.58
2018-06-27T03:09:43.172Z,89.83
2018-06-27T03:12:11.705Z,89.97
2018-06-27T03:14:40.173Z,89.95
2018-06-27T03:17:08.642Z,90.10
2018-06-27T03:19:37.233Z,90.15
2018-06-27T03:22:05.901Z,90.01
2018-06-27T03:24:34.370Z,90.10
2018-06-27T03:27:02.924Z,90.04
2018-06-27T03:29:31.411Z,90.00
2018-06-27T03:31:59.964Z,89.87
2018-06-27T03:34:28.469Z,89.53
2018-06-27T03:36:56.966Z,89.82
2018-06-27T03:39:25.890Z,89.71
2018-06-27T03:41:54.394Z,89.82
2018-06-27T03:44:22.931Z,89.85
2018-06-27T03:46:51.457Z,89.67
2018-06-27T03:49:19.962Z,89.72
2018-06-27T03:51:48.485Z,89.80
2018-06-27T03:54:16.962Z,89.48
2018-06-27T03:56:45.454Z,89.51
2018-06-27T03:59:13.932Z,89.44
2018-06-27T04:01:42.442Z,89.22
2018-06-27T04:04:10.946Z,89.46
2018-06-27T04:06:39.432Z,89.19
2018-06-27T04:09:11.462Z,88.77
2018-06-27T04:11:40.728Z,88.50
2018-06-27T04:14:09.353Z,87.40
2018-06-27T04:16:37.877Z,86.60
2018-06-27T04:19:06.381Z,86.46
2018-06-27T04:21:34.841Z,85.50
2018-06-27T04:24:03.336Z,84.03
2018-06-27T04:26:31.859Z,82.16
2018-06-27T04:29:00.382Z,80.55
2018-06-27T04:31:28.856Z,78.90
2018-06-27T04:33:58.084Z,79.48
2018-06-27T04:36:26.561Z,80.72
2018-06-27T04:38:55.170Z,80.57
2018-06-27T04:41:24.146Z,81.22
2018-06-27T04:43:52.639Z,81.97
2018-06-27T04:46:21.181Z,82.76
2018-06-27T04:48:49.653Z,82.01
2018-06-27T04:51:18.137Z,81.44
2018-06-27T04:53:46.630Z,81.57
2018-06-27T04:56:15.756Z,81.75
2018-06-27T04:58:44.243Z,81.93
2018-06-27T05:01:12.717Z,81.94
2018-06-27T05:03:41.266Z,81.61
2018-06-27T05:06:09.779Z,79.95
2018-06-27T05:08:38.295Z,77.66
2018-06-27T05:11:06.787Z,76.43
2018-06-27T05:13:35.353Z,74.79
2018-06-27T05:16:03.866Z,74.59
2018-06-27T05:18:32.325Z,72.55
2018-06-27T05:21:00.846Z,74.59
2018-06-27T05:23:29.337Z,73.98
2018-06-27T05:25:57.909Z,74.28
2018-06-27T05:28:26.401Z,74.14
2018-06-27T05:30:54.870Z,74.08
2018-06-27T05:33:23.385Z,73.72
2018-06-27T05:35:51.874Z,73.37
2018-06-27T05:38:20.389Z,71.88
2018-06-27T05:40:48.906Z,72.41
2018-06-27T05:43:17.381Z,71.50
2018-06-27T05:45:45.898Z,73.79
2018-06-27T05:48:14.493Z,69.57
2018-06-27T05:50:43.145Z,69.27
2018-06-27T05:53:11.770Z,69.92
2018-06-27T05:55:40.256Z,71.07
2018-06-27T05:58:08.846Z,71.92
2018-06-27T06:00:37.440Z,74.04
2018-06-27T06:03:05.921Z,75.17
2018-06-27T06:05:34.399Z,75.73
2018-06-27T06:08:02.894Z,76.37
2018-06-27T06:10:31.570Z,76.88
2018-06-27T06:13:00.097Z,76.93
2018-06-27T06:15:28.578Z,77.93
2018-06-27T06:17:57.045Z,77.62
2018-06-27T06:20:25.641Z,78.32
2018-06-27T06:22:54.133Z,78.02
2018-06-27T06:25:22.686Z,78.82
2018-06-27T06:27:51.154Z,78.94
2018-06-27T06:30:19.632Z,78.07
2018-06-27T06:32:48.153Z,78.63
2018-06-27T06:35:16.765Z,79.72
2018-06-27T06:37:45.290Z,79.32
2018-06-27T06:40:13.765Z,79.24
2018-06-27T06:42:42.333Z,78.23
2018-06-27T06:45:10.816Z,79.06
2018-06-27T06:47:39.305Z,78.68
2018-06-27T06:50:07.833Z,78.67
2018-06-27T06:52:36.502Z,78.03
2018-06-27T06:55:05.412Z,77.62
2018-06-27T06:57:33.996Z,78.43
2018-06-27T07:00:02.569Z,79.27
2018-06-27T07:02:31.061Z,76.96
2018-06-27T07:04:59.586Z,77.32
2018-06-27T07:07:28.050Z,75.80
2018-06-27T07:09:57.486Z,75.45
2018-06-27T07:12:26.005Z,76.46
2018-06-27T07:14:54.519Z,77.07
2018-06-27T07:17:23.117Z,74.76
2018-06-27T07:19:51.644Z,74.97
2018-06-27T07:22:20.101Z,74.75
2018-06-27T07:24:48.632Z,75.08
2018-06-27T07:27:17.138Z,72.83
2018-06-27T07:29:45.643Z,71.74
2018-06-27T07:32:14.143Z,72.31
2018-06-27T07:34:42.621Z,71.73
2018-06-27T07:37:11.273Z,73.14
2018-06-27T07:39:39.778Z,71.95
2018-06-27T07:42:09.469Z,72.82
2018-06-27T07:44:38.431Z,72.87
2018-06-27T07:47:07.240Z,71.60
2018-06-27T07:49:35.751Z,72.64
2018-06-27T07:52:05.042Z,72.99
2018-06-27T07:54:41.491Z,72.24
2018-06-27T07:57:12.242Z,71.94
2018-06-27T07:59:40.776Z,71.86
2018-06-27T08:02:09.630Z,71.09
2018-06-27T08:04:38.137Z,69.20
2018-06-27T08:07:06.665Z,67.48
2018-06-27T08:09:35.177Z,67.63
2018-06-27T08:12:03.681Z,67.92
2018-06-27T08:14:32.157Z,71.15
2018-06-27T08:17:01.059Z,71.08
2018-06-27T08:19:29.542Z,71.72
2018-06-27T08:21:58.078Z,72.31
2018-06-27T08:24:26.615Z,72.33
2018-06-27T08:26:55.162Z,72.99
2018-06-27T08:29:23.669Z,70.51
2018-06-27T08:31:52.164Z,72.27
2018-06-27T08:34:20.668Z,70.20
2018-06-27T08:36:49.198Z,69.29
2018-06-27T08:39:17.724Z,70.57
2018-06-27T08:41:46.254Z,69.47
2018-06-27T08:44:14.878Z,69.42
2018-06-27T08:46:43.365Z,69.07
2018-06-27T08:49:11.857Z,70.41
2018-06-27T08:51:40.377Z,69.66
2018-06-27T08:54:08.883Z,69.85
2018-06-27T08:56:37.413Z,69.50
2018-06-27T08:59:05.928Z,68.75
2018-06-27T09:01:34.531Z,68.72
2018-06-27T09:04:03.150Z,69.18
2018-06-27T09:06:31.669Z,69.26
2018-06-27T09:09:00.189Z,69.41
2018-06-27T09:11:28.666Z,69.44
2018-06-27T09:13:57.277Z,69.90
2018-06-27T09:16:25.765Z,70.38
2018-06-27T09:18:54.222Z,68.94
2018-06-27T09:21:22.749Z,69.28
2018-06-27T09:23:51.246Z,70.01
2018-06-27T09:26:19.738Z,69.23
2018-06-27T09:28:48.744Z,69.35
2018-06-27T09:31:17.345Z,70.12
2018-06-27T09:33:45.790Z,69.39
2018-06-27T09:36:14.289Z,67.96
2018-06-27T09:38:42.828Z,68.24
2018-06-27T09:41:11.319Z,67.45
2018-06-27T09:43:39.801Z,67.71
2018-06-27T09:46:08.416Z,67.90
2018-06-27T09:48:36.881Z,68.21
2018-06-27T09:51:05.850Z,67.31
2018-06-27T09:53:34.373Z,67.42
2018-06-27T09:56:02.858Z,67.48
2018-06-27T09:58:31.338Z,67.13
2018-06-27T10:00:59.914Z,66.61
2018-06-27T10:03:28.473Z,67.70
2018-06-27T10:05:57.091Z,66.35
2018-06-27T10:08:25.589Z,66.79
2018-06-27T10:10:54.073Z,67.23
2018-06-27T10:13:22.559Z,67.09
2018-06-27T10:15:51.068Z,66.72
2018-06-27T10:18:19.662Z,66.58
2018-06-27T10:20:48.152Z,66.71
2018-06-27T10:23:16.590Z,66.75
2018-06-27T10:25:45.080Z,66.59
2018-06-27T10:28:13.786Z,67.57
2018-06-27T10:30:42.237Z,65.93
2018-06-27T10:33:11.106Z,65.93
2018-06-27T10:35:39.609Z,64.55
2018-06-27T10:38:08.133Z,65.44
2018-06-27T10:40:36.637Z,65.25
2018-06-27T10:43:05.091Z,65.90
2018-06-27T10:45:33.533Z,67.49
2018-06-27T10:48:02.075Z,67.67
2018-06-27T10:50:30.521Z,66.16
2018-06-27T10:52:58.969Z,66.96
2018-06-27T10:55:27.417Z,66.34
2018-06-27T10:57:55.865Z,66.38
2018-06-27T11:00:24.319Z,66.33
2018-06-27T11:02:52.797Z,66.80
2018-06-27T11:05:21.333Z,65.83
2018-06-27T11:07:49.810Z,65.50
2018-06-27T11:10:18.251Z,64.77
2018-06-27T11:12:46.742Z,64.41
2018-06-27T11:15:15.182Z,63.22
2018-06-27T11:17:43.680Z,63.13
2018-06-27T11:20:12.154Z,63.02
2018-06-27T11:22:40.619Z,62.95
2018-06-27T11:25:09.092Z,62.21
2018-06-27T11:27:37.585Z,63.29
2018-06-27T11:30:06.128Z,61.65
2018-06-27T11:32:34.602Z,61.21
2018-06-27T11:35:03.257Z,62.88
2018-06-27T11:37:31.726Z,61.82
2018-06-27T11:40:00.190Z,60.31
2018-06-27T11:42:28.782Z,61.54
2018-06-27T11:44:57.261Z,61.50
2018-06-27T11:47:25.723Z,62.25
2018-06-27T11:49:54.298Z,62.23
2018-06-27T11:52:22.753Z,61.99
2018-06-27T11:54:56.599Z,62.01
2018-06-27T13:13:23.110Z,57.42
2018-06-27T13:15:51.681Z,56.17
2018-06-27T13:18:20.129Z,55.11
2018-06-27T13:20:48.615Z,55.39
2018-06-27T13:23:17.074Z,54.86
2018-06-27T13:25:45.598Z,55.02
2018-06-27T13:28:14.050Z,55.15
2018-06-27T13:30:42.506Z,54.38
2018-06-27T13:33:10.989Z,54.01
2018-06-27T13:35:39.507Z,55.02
2018-06-27T13:38:08.011Z,55.28
2018-06-27T13:40:36.523Z,54.49
2018-06-27T13:43:05.012Z,55.05
2018-06-27T13:45:34.169Z,54.14
2018-06-27T13:48:02.703Z,53.69
2018-06-27T13:50:31.142Z,52.41
2018-06-27T13:52:59.598Z,53.03
2018-06-27T13:55:28.127Z,53.37
2018-06-27T13:57:56.592Z,53.60
2018-06-27T14:00:25.061Z,53.96
2018-06-27T14:02:53.546Z,53.73
2018-06-27T14:05:22.031Z,52.95
2018-06-27T14:07:51.099Z,53.21
2018-06-27T14:10:19.598Z,53.08
2018-06-27T14:12:48.148Z,52.17
2018-06-27T14:15:16.597Z,51.59
2018-06-27T14:17:45.050Z,51.34
2018-06-27T14:20:13.648Z,51.63
2018-06-27T14:22:42.093Z,52.32
2018-06-27T14:25:10.564Z,51.33
2018-06-27T14:27:39.040Z,51.17
2018-06-27T14:30:07.581Z,51.32
2018-06-27T14:32:36.137Z,52.46
2018-06-27T14:35:05.068Z,52.00
2018-06-27T14:37:33.574Z,49.12
2018-06-27T14:40:02.076Z,48.24
2018-06-27T14:42:30.747Z,48.81
2018-06-27T14:44:59.213Z,48.86
2018-06-27T14:47:27.686Z,48.94
2018-06-27T14:49:56.182Z,49.32
2018-06-27T14:52:24.669Z,49.91
2018-06-27T14:54:53.132Z,50.53
2018-06-27T14:57:21.605Z,50.12
2018-06-27T14:59:50.803Z,49.62
2018-06-27T15:02:19.354Z,47.94
2018-06-27T15:04:47.967Z,49.13
2018-06-27T15:07:16.405Z,49.58
2018-06-27T15:09:44.877Z,50.22
2018-06-27T15:12:13.439Z,49.50
2018-06-27T15:14:41.978Z,49.78
2018-06-27T15:17:10.466Z,49.90
2018-06-27T15:19:39.052Z,46.90
2018-06-27T15:22:07.577Z,46.64
2018-06-27T15:24:36.065Z,46.93
2018-06-27T15:27:04.572Z,46.90
2018-06-27T15:29:33.069Z,45.59
2018-06-27T15:32:01.571Z,44.79
2018-06-27T15:34:30.103Z,46.55
2018-06-27T15:36:58.566Z,48.69
2018-06-27T15:39:27.094Z,49.80
2018-06-27T15:41:55.577Z,50.58
2018-06-27T15:44:24.053Z,51.03
2018-06-27T15:46:52.567Z,50.25
2018-06-27T15:49:21.052Z,49.81
2018-06-27T15:51:49.534Z,49.94
2018-06-27T15:54:18.054Z,49.11
2018-06-27T15:56:46.669Z,48.13
2018-06-27T15:59:15.126Z,47.69
2018-06-27T16:01:43.641Z,47.45
2018-06-27T16:04:12.206Z,46.08
2018-06-27T16:06:40.893Z,46.47
2018-06-27T16:09:10.145Z,46.15
2018-06-27T16:11:39.033Z,46.58
2018-06-27T16:14:07.562Z,46.71
2018-06-27T16:16:36.062Z,47.50
2018-06-27T16:19:04.633Z,48.27
2018-06-27T16:21:33.238Z,48.25
2018-06-27T16:24:01.733Z,48.35
2018-06-27T16:26:30.179Z,48.46
2018-06-27T16:28:58.653Z,46.43
2018-06-27T16:31:27.252Z,46.46
2018-06-27T16:33:55.697Z,46.62
2018-06-27T16:36:24.207Z,46.10
2018-06-27T16:38:52.751Z,46.86
2018-06-27T16:41:22.091Z,46.94
2018-06-27T16:43:50.809Z,47.14
2018-06-27T16:46:19.301Z,47.33
2018-06-27T16:48:47.848Z,47.18
2018-06-27T16:51:16.467Z,47.16
2018-06-27T16:53:44.882Z,47.18
2018-06-27T16:56:13.390Z,47.08
2018-06-27T16:58:42.669Z,46.82
2018-06-27T17:01:11.244Z,46.74
2018-06-27T17:03:39.722Z,47.57
2018-06-27T17:06:08.317Z,47.94
2018-06-27T17:08:36.782Z,48.14
2018-06-27T17:11:05.399Z,48.27
2018-06-27T17:13:33.881Z,48.84
2018-06-27T17:16:02.345Z,48.90
2018-06-27T17:18:30.824Z,49.12
2018-06-27T17:20:59.567Z,48.66
2018-06-27T17:23:28.043Z,49.33
2018-06-27T17:25:56.599Z,49.60
2018-06-27T17:28:25.135Z,49.78
2018-06-27T17:30:53.702Z,49.25
2018-06-27T17:33:22.293Z,49.58
2018-06-27T17:35:50.770Z,50.11
2018-06-27T17:38:19.317Z,50.65
2018-06-27T17:40:47.882Z,54.69
2018-06-27T17:43:16.379Z,56.44
2018-06-27T17:45:44.830Z,57.00
2018-06-27T17:48:13.373Z,56.87
2018-06-27T17:50:41.888Z,57.05
2018-06-27T17:53:10.422Z,56.61
2018-06-27T17:55:38.909Z,57.33
2018-06-27T17:58:07.345Z,57.62
2018-06-27T18:00:36.004Z,56.86
2018-06-27T18:03:04.686Z,56.95
2018-06-27T18:05:33.230Z,58.82
2018-06-27T18:08:01.738Z,58.15
2018-06-27T18:10:30.209Z,57.75
2018-06-27T18:12:58.858Z,58.28
2018-06-27T18:15:27.369Z,57.31
2018-06-27T18:17:55.845Z,57.22
2018-06-27T18:20:24.489Z,57.44
2018-06-27T18:22:52.952Z,59.11
2018-06-27T18:25:21.422Z,60.38
2018-06-27T18:27:49.953Z,60.48
2018-06-27T18:30:18.460Z,60.38
2018-06-27T18:32:46.958Z,60.06
2018-06-27T18:35:15.432Z,60.31
2018-06-27T18:37:44.159Z,59.95
2018-06-27T18:40:12.698Z,60.39
2018-06-27T18:42:41.191Z,60.69
2018-06-27T18:45:09.954Z,60.95
2018-06-27T18:47:38.557Z,60.67
2018-06-27T18:50:07.073Z,60.72
2018-06-27T18:52:35.544Z,60.88
2018-06-27T18:55:04.120Z,60.66
2018-06-27T18:57:32.661Z,60.56
2018-06-27T19:00:01.126Z,60.32
2018-06-27T19:02:29.777Z,59.90
2018-06-27T19:04:58.429Z,59.92
2018-06-27T19:07:26.981Z,58.86
2018-06-27T19:09:55.471Z,57.58
2018-06-27T19:12:24.153Z,56.97
2018-06-27T19:14:52.669Z,58.64
2018-06-27T19:17:21.207Z,59.10
2018-06-27T19:19:49.777Z,59.77
2018-06-27T19:22:18.261Z,59.47
2018-06-27T19:24:46.944Z,59.77
2018-06-27T19:27:15.493Z,59.81
2018-06-27T19:29:44.046Z,59.98
2018-06-27T19:32:12.609Z,60.41
2018-06-27T19:34:41.102Z,60.62
2018-06-27T19:37:09.565Z,60.29
2018-06-27T19:39:38.043Z,60.57
2018-06-27T19:42:06.576Z,61.64
2018-06-27T19:44:35.104Z,61.89
2018-06-27T19:47:03.647Z,62.57
2018-06-27T19:49:32.216Z,63.05
2018-06-27T19:52:00.736Z,63.69
2018-06-27T19:54:29.199Z,64.19
2018-06-27T19:56:57.885Z,64.41
2018-06-27T19:59:26.350Z,65.00
2018-06-27T20:01:54.805Z,65.59
2018-06-27T20:04:23.296Z,65.95
2018-06-27T20:06:51.752Z,66.30
2018-06-27T20:09:20.290Z,66.58
2018-06-27T20:11:48.749Z,67.23
2018-06-27T20:14:17.299Z,67.12
2018-06-27T20:16:45.707Z,67.39
2018-06-27T20:19:14.420Z,67.82
2018-06-27T20:21:42.823Z,68.17
2018-06-27T20:24:11.261Z,69.08
2018-06-27T20:26:39.744Z,69.37
2018-06-27T20:29:11.563Z,70.21
2018-06-27T20:31:40.041Z,70.63
2018-06-27T20:34:08.523Z,71.37
2018-06-27T20:36:37.063Z,71.60
2018-06-27T20:39:10.605Z,72.02
2018-06-27T20:41:40.206Z,72.37
2018-06-27T20:44:09.064Z,72.61
2018-06-27T20:46:37.659Z,72.64
2018-06-27T20:49:06.246Z,72.94
2018-06-27T20:51:34.712Z,73.05
2018-06-27T20:54:03.298Z,73.55
2018-06-27T20:56:31.793Z,73.65
2018-06-27T20:59:00.302Z,74.17
2018-06-27T21:01:30.968Z,74.08
2018-06-27T21:03:59.450Z,74.17
2018-06-27T21:06:27.953Z,74.44
2018-06-27T21:08:56.450Z,74.74
2018-06-27T21:11:24.980Z,74.56
2018-06-27T21:13:53.417Z,74.87
2018-06-27T21:16:22.026Z,75.43
2018-06-27T21:18:50.475Z,75.55
2018-06-27T21:21:18.961Z,75.81
2018-06-27T21:23:47.486Z,75.97
2018-06-27T21:26:20.307Z,76.39
2018-06-27T21:28:48.788Z,76.70
2018-06-27T21:31:17.262Z,76.96
2018-06-27T21:33:49.369Z,76.86
2018-06-27T21:36:18.007Z,77.01
2018-06-27T21:38:49.975Z,77.65
2018-06-27T21:41:18.450Z,77.54
2018-06-27T21:43:46.939Z,78.18
2018-06-27T21:46:15.451Z,78.12
2018-06-27T21:48:44.156Z,78.42
2018-06-27T21:51:12.761Z,77.99
2018-06-27T21:53:41.214Z,78.29
2018-06-27T21:56:09.708Z,78.16
2018-06-27T21:58:38.341Z,78.79
2018-06-27T22:01:06.887Z,78.64
2018-06-27T22:03:35.347Z,78.80
2018-06-27T22:06:09.788Z,78.52
2018-06-27T22:08:38.350Z,78.88
2018-06-27T22:11:06.882Z,79.27
2018-06-27T22:13:35.333Z,79.33
2018-06-27T22:16:03.806Z,79.86
2018-06-27T22:18:35.751Z,80.00
2018-06-27T22:21:04.262Z,80.26
2018-06-27T22:23:32.721Z,80.52
2018-06-27T22:26:01.241Z,80.78
2018-06-27T22:28:29.763Z,81.28
2018-06-27T22:30:58.245Z,80.88
2018-06-27T22:33:27.607Z,81.21
2018-06-27T22:35:56.090Z,81.22
2018-06-27T22:38:24.577Z,81.34
2018-06-27T22:40:53.037Z,81.39
2018-06-27T22:43:21.481Z,82.20
2018-06-27T22:45:50.090Z,82.00
2018-06-27T22:48:18.561Z,82.30
2018-06-27T22:50:47.079Z,82.32
2018-06-27T22:53:16.835Z,82.41
2018-06-27T22:55:45.313Z,82.36
2018-06-27T22:58:13.769Z,83.05
2018-06-27T23:00:42.242Z,83.47
2018-06-27T23:03:10.709Z,83.56
2018-06-27T23:05:39.219Z,83.74
2018-06-27T23:08:07.745Z,83.71
2018-06-27T23:10:36.333Z,84.04
2018-06-27T23:13:04.926Z,84.12
2018-06-27T23:15:34.938Z,84.11
2018-06-27T23:18:03.567Z,84.40
2018-06-27T23:20:32.118Z,84.28
2018-06-27T23:23:00.650Z,84.79
2018-06-27T23:25:29.126Z,84.95
2018-06-27T23:27:57.601Z,85.35
2018-06-27T23:30:26.106Z,85.57
2018-06-27T23:32:58.183Z,86.00
2018-06-27T23:35:26.771Z,85.56
2018-06-27T23:37:55.249Z,85.80
2018-06-27T23:40:23.709Z,85.64
2018-06-27T23:42:52.200Z,86.10
2018-06-27T23:45:22.248Z,85.80
2018-06-27T23:47:50.717Z,86.33
2018-06-27T23:50:19.198Z,86.32
2018-06-27T23:52:49.022Z,86.71
2018-06-27T23:55:17.616Z,87.00
2018-06-27T23:57:46.123Z,86.96
